sensor_id;sensor_type;location;lat;lon;timestamp;temperature;humidity
1355;DHT22;671;48.972;9.276;2022-09-17T00:00:38;11.00;99.90
1355;DHT22;671;48.972;9.276;2022-09-17T00:03:06;11.00;99.90
1355;DHT22;671;48.972;9.276;2022-09-17T00:05:33;11.10;99.90
1355;DHT22;671;48.972;9.276;2022-09-17T00:07:59;11.10;99.90
1355;DHT22;671;48.972;9.276;2022-09-17T00:10:26;11.20;99.90
1355;DHT22;671;48.972;9.276;2022-09-17T00:12:52;11.20;99.90
1355;DHT22;671;48.972;9.276;2022-09-17T00:15:19;11.30;99.90
1355;DHT22;671;48.972;9.276;2022-09-17T00:17:45;11.30;99.90
1355;DHT22;671;48.972;9.276;2022-09-17T00:20:11;11.40;99.90
1355;DHT22;671;48.972;9.276;2022-09-17T00:22:38;11.40;99.90
1355;DHT22;671;48.972;9.276;2022-09-17T00:25:06;11.40;99.90
1355;DHT22;671;48.972;9.276;2022-09-17T00:27:33;11.50;99.90
1355;DHT22;671;48.972;9.276;2022-09-17T00:30:00;11.50;99.90
1355;DHT22;671;48.972;9.276;2022-09-17T00:32:27;11.50;99.90
1355;DHT22;671;48.972;9.276;2022-09-17T00:34:53;11.50;99.90
1355;DHT22;671;48.972;9.276;2022-09-17T00:37:20;11.50;99.90
1355;DHT22;671;48.972;9.276;2022-09-17T00:39:47;11.60;99.90
1355;DHT22;671;48.972;9.276;2022-09-17T00:42:14;11.60;99.90
1355;DHT22;671;48.972;9.276;2022-09-17T00:52:52;11.70;99.90
1355;DHT22;671;48.972;9.276;2022-09-17T00:55:32;11.70;99.90
1355;DHT22;671;48.972;9.276;2022-09-17T00:58:01;11.60;99.90
1355;DHT22;671;48.972;9.276;2022-09-17T01:00:29;11.60;99.90
1355;DHT22;671;48.972;9.276;2022-09-17T01:02:56;11.50;99.90
1355;DHT22;671;48.972;9.276;2022-09-17T01:05:33;11.40;99.90
1355;DHT22;671;48.972;9.276;2022-09-17T01:16:05;11.10;99.90
1355;DHT22;671;48.972;9.276;2022-09-17T01:19:04;11.10;99.90
1355;DHT22;671;48.972;9.276;2022-09-17T01:21:40;11.10;99.90
1355;DHT22;671;48.972;9.276;2022-09-17T01:30:18;11.10;99.90
1355;DHT22;671;48.972;9.276;2022-09-17T01:32:55;11.00;99.90
1355;DHT22;671;48.972;9.276;2022-09-17T01:35:24;11.00;99.90
1355;DHT22;671;48.972;9.276;2022-09-17T01:40:49;10.90;99.90
1355;DHT22;671;48.972;9.276;2022-09-17T01:43:37;10.90;99.90
1355;DHT22;671;48.972;9.276;2022-09-17T01:46:12;10.90;99.90
1355;DHT22;671;48.972;9.276;2022-09-17T01:48:44;10.80;99.90
1355;DHT22;671;48.972;9.276;2022-09-17T01:51:21;10.80;99.90
1355;DHT22;671;48.972;9.276;2022-09-17T01:54:06;10.80;99.90
1355;DHT22;671;48.972;9.276;2022-09-17T01:56:41;10.70;99.90
1355;DHT22;671;48.972;9.276;2022-09-17T01:59:24;10.60;99.90
1355;DHT22;671;48.972;9.276;2022-09-17T02:01:57;10.60;99.90
1355;DHT22;671;48.972;9.276;2022-09-17T02:04:29;10.60;99.90
1355;DHT22;671;48.972;9.276;2022-09-17T02:07:05;10.60;99.90
1355;DHT22;671;48.972;9.276;2022-09-17T02:09:43;10.60;99.90
1355;DHT22;671;48.972;9.276;2022-09-17T02:12:19;10.60;99.90
1355;DHT22;671;48.972;9.276;2022-09-17T02:14:51;10.50;99.90
1355;DHT22;671;48.972;9.276;2022-09-17T02:17:24;10.50;99.90
1355;DHT22;671;48.972;9.276;2022-09-17T02:19:53;10.60;99.90
1355;DHT22;671;48.972;9.276;2022-09-17T02:22:29;10.50;99.90
1355;DHT22;671;48.972;9.276;2022-09-17T02:27:31;10.70;99.90
1355;DHT22;671;48.972;9.276;2022-09-17T02:30:00;10.70;99.90
1355;DHT22;671;48.972;9.276;2022-09-17T02:32:26;10.70;99.90
1355;DHT22;671;48.972;9.276;2022-09-17T02:34:53;10.80;99.90
1355;DHT22;671;48.972;9.276;2022-09-17T02:37:20;10.80;99.90
1355;DHT22;671;48.972;9.276;2022-09-17T02:39:46;10.80;99.90
1355;DHT22;671;48.972;9.276;2022-09-17T02:42:27;10.80;99.90
1355;DHT22;671;48.972;9.276;2022-09-17T02:48:19;10.90;99.90
1355;DHT22;671;48.972;9.276;2022-09-17T02:51:10;10.90;99.90
1355;DHT22;671;48.972;9.276;2022-09-17T02:59:46;10.90;99.90
1355;DHT22;671;48.972;9.276;2022-09-17T03:02:01;10.90;99.90
1355;DHT22;671;48.972;9.276;2022-09-17T03:04:30;10.90;99.90
1355;DHT22;671;48.972;9.276;2022-09-17T03:06:57;11.00;99.90
1355;DHT22;671;48.972;9.276;2022-09-17T03:09:25;11.00;99.90
1355;DHT22;671;48.972;9.276;2022-09-17T03:11:51;11.00;99.90
1355;DHT22;671;48.972;9.276;2022-09-17T03:14:18;11.00;99.90
1355;DHT22;671;48.972;9.276;2022-09-17T03:16:46;11.00;99.90
1355;DHT22;671;48.972;9.276;2022-09-17T03:19:13;11.00;99.90
1355;DHT22;671;48.972;9.276;2022-09-17T03:21:39;11.00;99.90
1355;DHT22;671;48.972;9.276;2022-09-17T03:24:06;10.90;99.90
1355;DHT22;671;48.972;9.276;2022-09-17T03:26:33;10.90;99.90
1355;DHT22;671;48.972;9.276;2022-09-17T03:28:59;10.90;99.90
1355;DHT22;671;48.972;9.276;2022-09-17T03:31:26;10.80;99.90
1355;DHT22;671;48.972;9.276;2022-09-17T03:33:54;10.80;99.90
1355;DHT22;671;48.972;9.276;2022-09-17T03:36:20;10.80;99.90
1355;DHT22;671;48.972;9.276;2022-09-17T03:38:47;10.70;99.90
1355;DHT22;671;48.972;9.276;2022-09-17T03:41:13;10.70;99.90
1355;DHT22;671;48.972;9.276;2022-09-17T03:43:40;10.80;99.90
1355;DHT22;671;48.972;9.276;2022-09-17T03:46:06;10.80;99.90
1355;DHT22;671;48.972;9.276;2022-09-17T03:48:33;10.70;99.90
1355;DHT22;671;48.972;9.276;2022-09-17T03:51:02;10.70;99.90
1355;DHT22;671;48.972;9.276;2022-09-17T03:53:29;10.80;99.90
1355;DHT22;671;48.972;9.276;2022-09-17T03:56:00;10.80;99.90
1355;DHT22;671;48.972;9.276;2022-09-17T03:58:29;10.90;99.90
1355;DHT22;671;48.972;9.276;2022-09-17T04:00:55;10.90;99.90
1355;DHT22;671;48.972;9.276;2022-09-17T04:03:23;10.90;99.90
1355;DHT22;671;48.972;9.276;2022-09-17T04:05:50;10.90;99.90
1355;DHT22;671;48.972;9.276;2022-09-17T04:08:17;10.90;99.90
1355;DHT22;671;48.972;9.276;2022-09-17T04:10:44;10.90;99.90
1355;DHT22;671;48.972;9.276;2022-09-17T04:13:11;10.80;99.90
1355;DHT22;671;48.972;9.276;2022-09-17T04:15:38;10.90;99.90
1355;DHT22;671;48.972;9.276;2022-09-17T04:18:05;10.90;99.90
1355;DHT22;671;48.972;9.276;2022-09-17T04:20:31;10.90;99.90
1355;DHT22;671;48.972;9.276;2022-09-17T04:22:58;10.90;99.90
1355;DHT22;671;48.972;9.276;2022-09-17T04:25:24;10.80;99.90
1355;DHT22;671;48.972;9.276;2022-09-17T04:27:51;10.80;99.90
1355;DHT22;671;48.972;9.276;2022-09-17T04:30:17;10.70;99.90
1355;DHT22;671;48.972;9.276;2022-09-17T04:32:44;10.60;99.90
1355;DHT22;671;48.972;9.276;2022-09-17T04:35:11;10.50;99.90
1355;DHT22;671;48.972;9.276;2022-09-17T04:37:38;10.50;99.90
1355;DHT22;671;48.972;9.276;2022-09-17T04:40:06;10.40;99.90
1355;DHT22;671;48.972;9.276;2022-09-17T04:42:32;10.30;99.90
1355;DHT22;671;48.972;9.276;2022-09-17T04:44:59;10.30;99.90
1355;DHT22;671;48.972;9.276;2022-09-17T04:47:25;10.20;99.90
1355;DHT22;671;48.972;9.276;2022-09-17T04:49:52;10.20;99.90
1355;DHT22;671;48.972;9.276;2022-09-17T04:52:18;10.10;99.90
1355;DHT22;671;48.972;9.276;2022-09-17T04:54:45;10.10;99.90
1355;DHT22;671;48.972;9.276;2022-09-17T04:57:11;10.00;99.90
1355;DHT22;671;48.972;9.276;2022-09-17T04:59:37;10.00;99.90
1355;DHT22;671;48.972;9.276;2022-09-17T05:02:04;10.00;99.90
1355;DHT22;671;48.972;9.276;2022-09-17T05:04:30;10.00;99.90
1355;DHT22;671;48.972;9.276;2022-09-17T05:06:57;10.00;99.90
1355;DHT22;671;48.972;9.276;2022-09-17T05:09:23;10.00;99.90
1355;DHT22;671;48.972;9.276;2022-09-17T05:11:50;10.00;99.90
1355;DHT22;671;48.972;9.276;2022-09-17T05:14:16;10.00;99.90
1355;DHT22;671;48.972;9.276;2022-09-17T05:16:43;10.00;99.90
1355;DHT22;671;48.972;9.276;2022-09-17T05:19:09;10.00;99.90
1355;DHT22;671;48.972;9.276;2022-09-17T05:21:35;10.00;99.90
1355;DHT22;671;48.972;9.276;2022-09-17T05:24:02;10.00;99.90
1355;DHT22;671;48.972;9.276;2022-09-17T05:26:29;10.10;99.90
1355;DHT22;671;48.972;9.276;2022-09-17T05:28:55;10.20;99.90
1355;DHT22;671;48.972;9.276;2022-09-17T05:31:22;10.30;99.90
1355;DHT22;671;48.972;9.276;2022-09-17T05:33:48;10.40;99.90
1355;DHT22;671;48.972;9.276;2022-09-17T05:36:14;10.50;99.90
1355;DHT22;671;48.972;9.276;2022-09-17T05:38:41;10.60;99.90
1355;DHT22;671;48.972;9.276;2022-09-17T05:41:08;10.70;99.90
1355;DHT22;671;48.972;9.276;2022-09-17T05:43:34;10.70;99.90
1355;DHT22;671;48.972;9.276;2022-09-17T05:46:04;10.80;99.90
1355;DHT22;671;48.972;9.276;2022-09-17T05:48:32;10.90;99.90
1355;DHT22;671;48.972;9.276;2022-09-17T05:50:58;10.90;99.90
1355;DHT22;671;48.972;9.276;2022-09-17T05:53:25;10.90;99.90
1355;DHT22;671;48.972;9.276;2022-09-17T05:55:58;10.90;99.90
1355;DHT22;671;48.972;9.276;2022-09-17T05:58:24;11.00;99.90
1355;DHT22;671;48.972;9.276;2022-09-17T06:00:52;11.00;99.90
1355;DHT22;671;48.972;9.276;2022-09-17T06:03:19;11.00;99.90
1355;DHT22;671;48.972;9.276;2022-09-17T06:05:58;11.10;99.90
1355;DHT22;671;48.972;9.276;2022-09-17T06:08:26;11.10;99.90
1355;DHT22;671;48.972;9.276;2022-09-17T06:10:53;11.20;99.90
1355;DHT22;671;48.972;9.276;2022-09-17T06:13:20;11.20;99.90
1355;DHT22;671;48.972;9.276;2022-09-17T06:15:50;11.30;99.90
1355;DHT22;671;48.972;9.276;2022-09-17T06:18:17;11.30;99.90
1355;DHT22;671;48.972;9.276;2022-09-17T06:20:52;11.30;99.90
1355;DHT22;671;48.972;9.276;2022-09-17T06:23:19;11.30;99.90
1355;DHT22;671;48.972;9.276;2022-09-17T06:25:56;11.30;99.90
1355;DHT22;671;48.972;9.276;2022-09-17T06:28:24;11.30;99.90
1355;DHT22;671;48.972;9.276;2022-09-17T06:30:51;11.40;99.90
1355;DHT22;671;48.972;9.276;2022-09-17T06:33:22;11.40;99.90
1355;DHT22;671;48.972;9.276;2022-09-17T06:35:56;11.40;99.90
1355;DHT22;671;48.972;9.276;2022-09-17T06:38:23;11.40;99.90
1355;DHT22;671;48.972;9.276;2022-09-17T06:40:50;11.50;99.90
1355;DHT22;671;48.972;9.276;2022-09-17T06:43:18;11.50;99.90
1355;DHT22;671;48.972;9.276;2022-09-17T06:45:54;11.50;99.90
1355;DHT22;671;48.972;9.276;2022-09-17T06:48:22;11.50;99.90
1355;DHT22;671;48.972;9.276;2022-09-17T06:50:51;11.50;99.90
1355;DHT22;671;48.972;9.276;2022-09-17T06:53:23;11.50;99.90
1355;DHT22;671;48.972;9.276;2022-09-17T06:55:49;11.50;99.90
1355;DHT22;671;48.972;9.276;2022-09-17T06:58:16;11.50;99.90
1355;DHT22;671;48.972;9.276;2022-09-17T07:00:42;11.50;99.90
1355;DHT22;671;48.972;9.276;2022-09-17T07:03:09;11.40;99.90
1355;DHT22;671;48.972;9.276;2022-09-17T07:05:35;11.40;99.90
1355;DHT22;671;48.972;9.276;2022-09-17T07:08:02;11.30;99.90
1355;DHT22;671;48.972;9.276;2022-09-17T07:10:30;11.30;99.90
1355;DHT22;671;48.972;9.276;2022-09-17T07:12:56;11.30;99.90
1355;DHT22;671;48.972;9.276;2022-09-17T07:15:24;11.30;99.90
1355;DHT22;671;48.972;9.276;2022-09-17T07:17:51;11.40;99.90
1355;DHT22;671;48.972;9.276;2022-09-17T07:20:17;11.40;99.90
1355;DHT22;671;48.972;9.276;2022-09-17T07:22:44;11.50;99.90
1355;DHT22;671;48.972;9.276;2022-09-17T07:25:11;11.50;99.90
1355;DHT22;671;48.972;9.276;2022-09-17T07:27:37;11.50;99.90
1355;DHT22;671;48.972;9.276;2022-09-17T07:30:04;11.50;99.90
1355;DHT22;671;48.972;9.276;2022-09-17T07:32:31;11.50;99.90
1355;DHT22;671;48.972;9.276;2022-09-17T07:34:57;11.40;99.90
1355;DHT22;671;48.972;9.276;2022-09-17T07:37:24;11.40;99.90
1355;DHT22;671;48.972;9.276;2022-09-17T07:39:50;11.50;99.90
1355;DHT22;671;48.972;9.276;2022-09-17T07:42:17;11.50;99.90
1355;DHT22;671;48.972;9.276;2022-09-17T07:44:43;11.50;99.90
1355;DHT22;671;48.972;9.276;2022-09-17T07:47:12;11.60;99.90
1355;DHT22;671;48.972;9.276;2022-09-17T07:49:38;11.60;99.90
1355;DHT22;671;48.972;9.276;2022-09-17T07:52:05;11.60;99.90
1355;DHT22;671;48.972;9.276;2022-09-17T07:54:34;11.60;99.90
1355;DHT22;671;48.972;9.276;2022-09-17T07:57:03;11.70;99.90
1355;DHT22;671;48.972;9.276;2022-09-17T07:59:29;11.70;99.90
1355;DHT22;671;48.972;9.276;2022-09-17T08:01:56;11.80;99.90
1355;DHT22;671;48.972;9.276;2022-09-17T08:04:23;11.80;99.90
1355;DHT22;671;48.972;9.276;2022-09-17T08:06:49;11.80;99.90
1355;DHT22;671;48.972;9.276;2022-09-17T08:09:16;11.80;99.90
1355;DHT22;671;48.972;9.276;2022-09-17T08:11:43;12.00;99.90
1355;DHT22;671;48.972;9.276;2022-09-17T08:14:12;12.10;99.90
1355;DHT22;671;48.972;9.276;2022-09-17T08:16:39;12.10;99.90
1355;DHT22;671;48.972;9.276;2022-09-17T08:19:06;12.10;99.90
1355;DHT22;671;48.972;9.276;2022-09-17T08:21:34;12.20;99.90
1355;DHT22;671;48.972;9.276;2022-09-17T08:24:01;12.30;99.90
1355;DHT22;671;48.972;9.276;2022-09-17T08:26:27;12.40;99.90
1355;DHT22;671;48.972;9.276;2022-09-17T08:28:54;12.50;99.90
1355;DHT22;671;48.972;9.276;2022-09-17T08:31:24;12.70;99.90
1355;DHT22;671;48.972;9.276;2022-09-17T08:33:51;12.80;99.90
1355;DHT22;671;48.972;9.276;2022-09-17T08:36:18;13.00;99.90
1355;DHT22;671;48.972;9.276;2022-09-17T08:38:46;13.30;99.90
1355;DHT22;671;48.972;9.276;2022-09-17T08:41:40;13.50;99.90
1355;DHT22;671;48.972;9.276;2022-09-17T08:44:26;13.60;99.90
1355;DHT22;671;48.972;9.276;2022-09-17T08:47:10;13.90;99.90
1355;DHT22;671;48.972;9.276;2022-09-17T08:49:51;13.90;99.90
1355;DHT22;671;48.972;9.276;2022-09-17T09:00:57;14.20;99.90
1355;DHT22;671;48.972;9.276;2022-09-17T09:06:04;14.10;99.90
1355;DHT22;671;48.972;9.276;2022-09-17T09:11:04;14.20;99.90
1355;DHT22;671;48.972;9.276;2022-09-17T09:13:37;14.30;99.90
1355;DHT22;671;48.972;9.276;2022-09-17T09:16:11;14.30;99.90
1355;DHT22;671;48.972;9.276;2022-09-17T09:18:40;14.30;99.90
1355;DHT22;671;48.972;9.276;2022-09-17T09:21:27;14.30;99.90
1355;DHT22;671;48.972;9.276;2022-09-17T09:26:52;14.20;99.90
1355;DHT22;671;48.972;9.276;2022-09-17T09:32:48;14.50;99.90
1355;DHT22;671;48.972;9.276;2022-09-17T09:35:23;14.70;99.90
1355;DHT22;671;48.972;9.276;2022-09-17T09:40:54;14.60;99.90
1355;DHT22;671;48.972;9.276;2022-09-17T09:48:54;14.10;99.90
1355;DHT22;671;48.972;9.276;2022-09-17T09:57:02;14.10;99.90
1355;DHT22;671;48.972;9.276;2022-09-17T09:59:31;14.10;99.90
1355;DHT22;671;48.972;9.276;2022-09-17T10:01:58;14.20;99.90
1355;DHT22;671;48.972;9.276;2022-09-17T10:04:26;14.30;99.90
1355;DHT22;671;48.972;9.276;2022-09-17T10:06:58;14.60;99.90
1355;DHT22;671;48.972;9.276;2022-09-17T10:09:29;14.90;99.90
1355;DHT22;671;48.972;9.276;2022-09-17T10:14:41;14.90;99.90
1355;DHT22;671;48.972;9.276;2022-09-17T10:17:17;14.90;99.90
1355;DHT22;671;48.972;9.276;2022-09-17T10:22:31;14.70;99.90
1355;DHT22;671;48.972;9.276;2022-09-17T10:24:59;14.60;99.90
1355;DHT22;671;48.972;9.276;2022-09-17T10:27:27;14.40;99.90
1355;DHT22;671;48.972;9.276;2022-09-17T10:30:12;14.50;99.90
1355;DHT22;671;48.972;9.276;2022-09-17T10:32:39;14.60;99.90
1355;DHT22;671;48.972;9.276;2022-09-17T10:37:46;15.10;99.90
1355;DHT22;671;48.972;9.276;2022-09-17T10:47:50;16.10;99.90
1355;DHT22;671;48.972;9.276;2022-09-17T10:50:33;16.40;99.90
1355;DHT22;671;48.972;9.276;2022-09-17T10:53:06;16.70;99.90
1355;DHT22;671;48.972;9.276;2022-09-17T10:59:06;16.90;99.90
1355;DHT22;671;48.972;9.276;2022-09-17T11:01:48;16.90;99.90
1355;DHT22;671;48.972;9.276;2022-09-17T11:12:39;16.30;99.90
1355;DHT22;671;48.972;9.276;2022-09-17T11:18:33;16.40;99.90
1355;DHT22;671;48.972;9.276;2022-09-17T11:26:38;15.80;99.90
1355;DHT22;671;48.972;9.276;2022-09-17T11:34:47;15.30;99.90
1355;DHT22;671;48.972;9.276;2022-09-17T11:37:25;15.40;99.90
1355;DHT22;671;48.972;9.276;2022-09-17T11:40:03;15.50;99.90
1355;DHT22;671;48.972;9.276;2022-09-17T11:45:10;15.90;99.90
1355;DHT22;671;48.972;9.276;2022-09-17T11:48:02;16.20;99.90
1355;DHT22;671;48.972;9.276;2022-09-17T11:53:28;16.70;99.90
1355;DHT22;671;48.972;9.276;2022-09-17T11:56:04;16.70;99.90
1355;DHT22;671;48.972;9.276;2022-09-17T11:59:09;16.70;99.90
1355;DHT22;671;48.972;9.276;2022-09-17T12:01:49;16.60;99.90
1355;DHT22;671;48.972;9.276;2022-09-17T12:04:46;16.50;99.90
1355;DHT22;671;48.972;9.276;2022-09-17T12:10:01;16.80;99.90
1355;DHT22;671;48.972;9.276;2022-09-17T12:12:28;17.10;99.90
1355;DHT22;671;48.972;9.276;2022-09-17T12:15:02;17.40;99.90
1355;DHT22;671;48.972;9.276;2022-09-17T12:17:49;17.60;99.90
1355;DHT22;671;48.972;9.276;2022-09-17T12:20:39;17.70;99.90
1355;DHT22;671;48.972;9.276;2022-09-17T12:23:11;17.60;99.90
1355;DHT22;671;48.972;9.276;2022-09-17T12:26:05;17.60;99.90
1355;DHT22;671;48.972;9.276;2022-09-17T12:29:05;17.70;99.90
1355;DHT22;671;48.972;9.276;2022-09-17T12:31:42;17.50;99.90
1355;DHT22;671;48.972;9.276;2022-09-17T12:37:21;17.50;99.90
1355;DHT22;671;48.972;9.276;2022-09-17T12:45:19;17.50;99.90
1355;DHT22;671;48.972;9.276;2022-09-17T12:53:34;17.70;99.90
1355;DHT22;671;48.972;9.276;2022-09-17T13:10:38;17.90;99.90
1355;DHT22;671;48.972;9.276;2022-09-17T13:23:37;17.20;99.90
1355;DHT22;671;48.972;9.276;2022-09-17T13:26:06;17.20;99.90
1355;DHT22;671;48.972;9.276;2022-09-17T13:28:51;17.20;99.90
1355;DHT22;671;48.972;9.276;2022-09-17T13:31:53;17.20;99.90
1355;DHT22;671;48.972;9.276;2022-09-17T13:36:53;17.20;99.90
1355;DHT22;671;48.972;9.276;2022-09-17T13:39:40;17.10;99.90
1355;DHT22;671;48.972;9.276;2022-09-17T13:44:44;17.00;99.90
1355;DHT22;671;48.972;9.276;2022-09-17T13:47:13;17.00;99.90
1355;DHT22;671;48.972;9.276;2022-09-17T13:49:57;16.90;99.90
1355;DHT22;671;48.972;9.276;2022-09-17T13:52:32;17.00;99.90
1355;DHT22;671;48.972;9.276;2022-09-17T13:55:00;17.10;99.90
1355;DHT22;671;48.972;9.276;2022-09-17T13:57:29;17.10;99.90
1355;DHT22;671;48.972;9.276;2022-09-17T13:59:59;17.00;99.90
1355;DHT22;671;48.972;9.276;2022-09-17T14:02:29;16.80;99.90
1355;DHT22;671;48.972;9.276;2022-09-17T14:05:23;16.70;99.90
1355;DHT22;671;48.972;9.276;2022-09-17T14:07:51;16.70;99.90
1355;DHT22;671;48.972;9.276;2022-09-17T14:10:39;16.60;99.90
1355;DHT22;671;48.972;9.276;2022-09-17T14:13:37;16.60;99.90
1355;DHT22;671;48.972;9.276;2022-09-17T14:19:23;16.60;99.90
1355;DHT22;671;48.972;9.276;2022-09-17T14:32:18;17.10;99.90
1355;DHT22;671;48.972;9.276;2022-09-17T14:34:48;17.00;99.90
1355;DHT22;671;48.972;9.276;2022-09-17T14:37:18;17.00;99.90
1355;DHT22;671;48.972;9.276;2022-09-17T14:39:46;17.10;99.90
1355;DHT22;671;48.972;9.276;2022-09-17T14:42:17;17.10;99.90
1355;DHT22;671;48.972;9.276;2022-09-17T14:44:55;17.20;99.90
1355;DHT22;671;48.972;9.276;2022-09-17T14:47:24;17.10;99.90
1355;DHT22;671;48.972;9.276;2022-09-17T14:49:52;17.20;99.90
1355;DHT22;671;48.972;9.276;2022-09-17T14:52:23;17.10;99.90
1355;DHT22;671;48.972;9.276;2022-09-17T14:57:40;17.40;99.90
1355;DHT22;671;48.972;9.276;2022-09-17T15:00:15;17.40;99.90
1355;DHT22;671;48.972;9.276;2022-09-17T15:02:43;17.30;99.90
1355;DHT22;671;48.972;9.276;2022-09-17T15:07:49;17.20;99.90
1355;DHT22;671;48.972;9.276;2022-09-17T15:10:19;17.10;99.90
1355;DHT22;671;48.972;9.276;2022-09-17T15:12:47;16.90;99.90
1355;DHT22;671;48.972;9.276;2022-09-17T15:15:19;16.70;99.90
1355;DHT22;671;48.972;9.276;2022-09-17T15:17:48;16.60;99.90
1355;DHT22;671;48.972;9.276;2022-09-17T15:20:19;16.60;99.90
1355;DHT22;671;48.972;9.276;2022-09-17T15:23:02;16.70;99.90
1355;DHT22;671;48.972;9.276;2022-09-17T15:25:32;16.70;99.90
1355;DHT22;671;48.972;9.276;2022-09-17T15:28:07;16.80;99.90
1355;DHT22;671;48.972;9.276;2022-09-17T15:30:37;16.70;99.90
1355;DHT22;671;48.972;9.276;2022-09-17T15:33:08;16.70;99.90
1355;DHT22;671;48.972;9.276;2022-09-17T15:35:36;16.50;99.90
1355;DHT22;671;48.972;9.276;2022-09-17T15:38:20;16.30;99.90
1355;DHT22;671;48.972;9.276;2022-09-17T15:40:47;16.20;99.90
1355;DHT22;671;48.972;9.276;2022-09-17T15:43:26;16.20;99.90
1355;DHT22;671;48.972;9.276;2022-09-17T15:45:55;16.20;99.90
1355;DHT22;671;48.972;9.276;2022-09-17T15:50:56;16.10;99.90
1355;DHT22;671;48.972;9.276;2022-09-17T16:11:20;16.30;99.90
1355;DHT22;671;48.972;9.276;2022-09-17T16:13:50;16.10;99.90
1355;DHT22;671;48.972;9.276;2022-09-17T16:18:45;15.90;99.90
1355;DHT22;671;48.972;9.276;2022-09-17T16:21:14;15.70;99.90
1355;DHT22;671;48.972;9.276;2022-09-17T16:23:41;15.70;99.90
1355;DHT22;671;48.972;9.276;2022-09-17T16:26:16;15.60;99.90
1355;DHT22;671;48.972;9.276;2022-09-17T16:28:45;15.50;99.90
1355;DHT22;671;48.972;9.276;2022-09-17T16:31:13;15.40;99.90
1355;DHT22;671;48.972;9.276;2022-09-17T16:33:40;15.40;99.90
1355;DHT22;671;48.972;9.276;2022-09-17T16:36:06;15.40;99.90
1355;DHT22;671;48.972;9.276;2022-09-17T16:38:33;15.30;99.90
1355;DHT22;671;48.972;9.276;2022-09-17T16:41:03;15.30;99.90
1355;DHT22;671;48.972;9.276;2022-09-17T16:43:30;15.20;99.90
1355;DHT22;671;48.972;9.276;2022-09-17T16:46:00;15.30;99.90
1355;DHT22;671;48.972;9.276;2022-09-17T16:48:27;15.20;99.90
1355;DHT22;671;48.972;9.276;2022-09-17T16:50:53;15.10;99.90
1355;DHT22;671;48.972;9.276;2022-09-17T16:53:20;15.10;99.90
1355;DHT22;671;48.972;9.276;2022-09-17T16:55:47;15.00;99.90
1355;DHT22;671;48.972;9.276;2022-09-17T16:58:14;15.00;99.90
1355;DHT22;671;48.972;9.276;2022-09-17T17:00:43;14.90;99.90
1355;DHT22;671;48.972;9.276;2022-09-17T17:03:11;14.90;99.90
1355;DHT22;671;48.972;9.276;2022-09-17T17:05:38;14.90;99.90
1355;DHT22;671;48.972;9.276;2022-09-17T17:08:06;14.80;99.90
1355;DHT22;671;48.972;9.276;2022-09-17T17:10:34;14.80;99.90
1355;DHT22;671;48.972;9.276;2022-09-17T17:13:02;14.70;99.90
1355;DHT22;671;48.972;9.276;2022-09-17T17:15:29;14.70;99.90
1355;DHT22;671;48.972;9.276;2022-09-17T17:17:56;14.60;99.90
1355;DHT22;671;48.972;9.276;2022-09-17T17:20:22;14.60;99.90
1355;DHT22;671;48.972;9.276;2022-09-17T17:22:49;14.30;99.90
1355;DHT22;671;48.972;9.276;2022-09-17T17:25:17;14.20;99.90
1355;DHT22;671;48.972;9.276;2022-09-17T17:27:44;14.10;99.90
1355;DHT22;671;48.972;9.276;2022-09-17T17:30:10;13.90;99.90
1355;DHT22;671;48.972;9.276;2022-09-17T17:32:42;13.80;99.90
1355;DHT22;671;48.972;9.276;2022-09-17T17:35:09;13.60;99.90
1355;DHT22;671;48.972;9.276;2022-09-17T17:37:36;13.40;99.90
1355;DHT22;671;48.972;9.276;2022-09-17T17:40:03;13.30;99.90
1355;DHT22;671;48.972;9.276;2022-09-17T17:42:35;13.30;99.90
1355;DHT22;671;48.972;9.276;2022-09-17T17:45:05;13.20;99.90
1355;DHT22;671;48.972;9.276;2022-09-17T17:47:32;13.20;99.90
1355;DHT22;671;48.972;9.276;2022-09-17T17:49:58;13.20;99.90
1355;DHT22;671;48.972;9.276;2022-09-17T17:52:25;13.20;99.90
1355;DHT22;671;48.972;9.276;2022-09-17T17:54:51;13.10;99.90
1355;DHT22;671;48.972;9.276;2022-09-17T17:57:18;13.10;99.90
1355;DHT22;671;48.972;9.276;2022-09-17T17:59:45;13.10;99.90
1355;DHT22;671;48.972;9.276;2022-09-17T18:02:11;13.20;99.90
1355;DHT22;671;48.972;9.276;2022-09-17T18:04:37;13.10;99.90
1355;DHT22;671;48.972;9.276;2022-09-17T18:07:04;13.10;99.90
1355;DHT22;671;48.972;9.276;2022-09-17T18:09:30;13.20;99.90
1355;DHT22;671;48.972;9.276;2022-09-17T18:11:57;13.20;99.90
1355;DHT22;671;48.972;9.276;2022-09-17T18:14:23;13.20;99.90
1355;DHT22;671;48.972;9.276;2022-09-17T18:16:50;13.10;99.90
1355;DHT22;671;48.972;9.276;2022-09-17T18:19:16;13.10;99.90
1355;DHT22;671;48.972;9.276;2022-09-17T18:21:43;13.00;99.90
1355;DHT22;671;48.972;9.276;2022-09-17T18:24:09;13.00;99.90
1355;DHT22;671;48.972;9.276;2022-09-17T18:26:35;12.90;99.90
1355;DHT22;671;48.972;9.276;2022-09-17T18:29:02;12.90;99.90
1355;DHT22;671;48.972;9.276;2022-09-17T18:31:31;12.90;99.90
1355;DHT22;671;48.972;9.276;2022-09-17T18:36:32;12.80;99.90
1355;DHT22;671;48.972;9.276;2022-09-17T18:39:01;12.70;99.90
1355;DHT22;671;48.972;9.276;2022-09-17T18:41:28;12.70;99.90
1355;DHT22;671;48.972;9.276;2022-09-17T18:43:56;12.70;99.90
1355;DHT22;671;48.972;9.276;2022-09-17T18:46:22;12.70;99.90
1355;DHT22;671;48.972;9.276;2022-09-17T18:48:52;12.70;99.90
1355;DHT22;671;48.972;9.276;2022-09-17T18:51:20;12.60;99.90
1355;DHT22;671;48.972;9.276;2022-09-17T18:53:46;12.60;99.90
1355;DHT22;671;48.972;9.276;2022-09-17T18:56:14;12.50;99.90
1355;DHT22;671;48.972;9.276;2022-09-17T18:58:44;12.40;99.90
1355;DHT22;671;48.972;9.276;2022-09-17T19:01:11;12.30;99.90
1355;DHT22;671;48.972;9.276;2022-09-17T19:03:37;12.40;99.90
1355;DHT22;671;48.972;9.276;2022-09-17T19:06:07;12.30;99.90
1355;DHT22;671;48.972;9.276;2022-09-17T19:08:34;12.30;99.90
1355;DHT22;671;48.972;9.276;2022-09-17T19:11:00;12.30;99.90
1355;DHT22;671;48.972;9.276;2022-09-17T19:13:33;12.30;99.90
1355;DHT22;671;48.972;9.276;2022-09-17T19:16:00;12.20;99.90
1355;DHT22;671;48.972;9.276;2022-09-17T19:18:27;12.20;99.90
1355;DHT22;671;48.972;9.276;2022-09-17T19:21:09;12.10;99.90
1355;DHT22;671;48.972;9.276;2022-09-17T19:23:42;12.10;99.90
1355;DHT22;671;48.972;9.276;2022-09-17T19:26:20;12.00;99.90
1355;DHT22;671;48.972;9.276;2022-09-17T19:28:50;12.00;99.90
1355;DHT22;671;48.972;9.276;2022-09-17T19:31:17;11.90;99.90
1355;DHT22;671;48.972;9.276;2022-09-17T19:33:44;11.90;99.90
1355;DHT22;671;48.972;9.276;2022-09-17T19:36:14;11.80;99.90
1355;DHT22;671;48.972;9.276;2022-09-17T19:38:41;11.80;99.90
1355;DHT22;671;48.972;9.276;2022-09-17T19:41:13;11.70;99.90
1355;DHT22;671;48.972;9.276;2022-09-17T19:43:40;11.70;99.90
1355;DHT22;671;48.972;9.276;2022-09-17T19:46:10;11.70;99.90
1355;DHT22;671;48.972;9.276;2022-09-17T19:48:45;11.70;99.90
1355;DHT22;671;48.972;9.276;2022-09-17T19:51:12;11.60;99.90
1355;DHT22;671;48.972;9.276;2022-09-17T19:53:39;11.60;99.90
1355;DHT22;671;48.972;9.276;2022-09-17T19:56:07;11.60;99.90
1355;DHT22;671;48.972;9.276;2022-09-17T19:58:35;11.60;99.90
1355;DHT22;671;48.972;9.276;2022-09-17T20:01:01;11.60;99.90
1355;DHT22;671;48.972;9.276;2022-09-17T20:03:28;11.60;99.90
1355;DHT22;671;48.972;9.276;2022-09-17T20:06:03;11.60;99.90